Terminal Aerodrome Forecast
Issued by NWS Wilmington, OH

Current Version | Previous Version | Graphics & Text | Print | Product List | Glossary On
Versions: 1 2 3 4 5 6 7 8 9 10 11 12 13 14 15 16 17 18 19 20 21 22 23 24 25
000
FTUS41 KILN 181800 AAA
TAFILN
TAF AMD
KILN 181813Z 1818/1918 02005KT 6SM HZ VCSH FEW021 SCT029 BKN060
      TEMPO 1818/1821 -SHRA BKN029
     FM190100 03003KT 5SM BR SCT035
     FM190500 VRB03KT 2SM BR BKN250
     FM190800 00000KT 1SM BR FEW001 BKN250
     FM191200 VRB03KT 2SM BR BKN250
     FM191400 23005KT P6SM BKN250=

USA.gov is the U.S. government's official web portal to all federal, state and local government web resources and services.